createdAt,value
2019-01-18T00:02:22.567Z,3.03
2019-01-18T00:04:52.271Z,2.50
2019-01-18T00:07:22.044Z,2.17
2019-01-18T00:09:51.822Z,3.40
2019-01-18T00:12:21.641Z,2.30
2019-01-18T00:14:51.406Z,2.50
2019-01-18T00:17:21.127Z,2.90
2019-01-18T00:19:50.722Z,2.73
2019-01-18T00:22:21.450Z,2.50
2019-01-18T00:24:51.251Z,2.43
2019-01-18T00:27:20.977Z,2.70
2019-01-18T00:29:50.707Z,2.60
2019-01-18T00:32:20.456Z,2.90
2019-01-18T00:34:50.306Z,2.70
2019-01-18T00:37:20.173Z,2.53
2019-01-18T00:39:50.310Z,2.70
2019-01-18T00:42:20.309Z,2.70
2019-01-18T00:44:49.949Z,2.70
2019-01-18T00:47:20.099Z,3.53
2019-01-18T00:49:49.683Z,2.93
2019-01-18T00:52:19.417Z,2.67
2019-01-18T00:54:49.173Z,2.80
2019-01-18T00:57:18.802Z,3.80
2019-01-18T00:59:48.586Z,2.90
2019-01-18T01:02:19.092Z,3.10
2019-01-18T01:04:48.957Z,3.50
2019-01-18T01:07:18.557Z,3.27
2019-01-18T01:09:49.543Z,3.70
2019-01-18T01:12:19.110Z,3.53
2019-01-18T01:14:48.939Z,3.23
2019-01-18T01:17:21.544Z,3.00
2019-01-18T01:19:51.455Z,2.33
2019-01-18T01:22:21.223Z,2.12
2019-01-18T01:24:50.913Z,1.90
2019-01-18T01:27:20.883Z,2.17
2019-01-18T01:29:50.624Z,2.08
2019-01-18T01:32:20.410Z,2.10
2019-01-18T01:34:50.688Z,2.07
2019-01-18T01:37:20.422Z,1.90
2019-01-18T01:39:51.145Z,1.98
2019-01-18T01:42:20.926Z,2.00
2019-01-18T01:44:50.593Z,2.20
2019-01-18T01:47:20.299Z,2.62
2019-01-18T01:49:50.031Z,2.07
2019-01-18T01:52:19.942Z,2.53
2019-01-18T01:54:50.836Z,2.10
2019-01-18T01:57:20.514Z,2.00
2019-01-18T01:59:50.447Z,2.87
2019-01-18T02:02:20.117Z,2.80
2019-01-18T02:04:49.914Z,2.20
2019-01-18T02:07:19.641Z,3.08
2019-01-18T02:09:49.512Z,3.00
2019-01-18T02:12:19.140Z,2.83
2019-01-18T02:14:48.927Z,2.50
2019-01-18T02:17:18.770Z,2.70
2019-01-18T02:19:48.498Z,2.93
2019-01-18T02:22:18.065Z,2.67
2019-01-18T02:24:47.967Z,2.70
2019-01-18T02:27:17.705Z,3.80
2019-01-18T02:29:47.256Z,3.33
2019-01-18T02:32:17.091Z,3.10
2019-01-18T02:34:47.295Z,3.93
2019-01-18T02:37:17.037Z,3.20
2019-01-18T02:39:46.692Z,3.30
2019-01-18T02:42:16.526Z,3.37
2019-01-18T02:44:46.134Z,3.47
2019-01-18T02:47:16.437Z,3.20
2019-01-18T02:49:46.232Z,3.87
2019-01-18T02:52:16.004Z,3.57
2019-01-18T02:54:45.656Z,3.30
2019-01-18T02:57:15.248Z,3.00
2019-01-18T02:59:45.244Z,3.60
2019-01-18T03:02:15.007Z,3.62
2019-01-18T03:04:44.780Z,3.33
2019-01-18T03:07:14.476Z,3.60
2019-01-18T03:09:44.273Z,3.83
2019-01-18T03:12:13.900Z,3.50
2019-01-18T03:14:43.548Z,3.80
2019-01-18T03:17:15.886Z,3.70
2019-01-18T03:19:58.323Z,4.00
2019-01-18T03:22:28.134Z,3.80
2019-01-18T03:24:57.828Z,3.75
2019-01-18T03:27:27.651Z,3.95
2019-01-18T03:29:57.235Z,3.80
2019-01-18T03:32:27.276Z,3.50
2019-01-18T03:34:56.892Z,3.95
2019-01-18T03:37:26.745Z,3.50
2019-01-18T03:39:56.572Z,3.55
2019-01-18T03:42:26.379Z,4.08
2019-01-18T03:44:55.979Z,3.80
2019-01-18T03:47:25.736Z,4.03
2019-01-18T03:49:55.344Z,4.12
2019-01-18T03:52:26.121Z,3.98
2019-01-18T03:54:55.758Z,4.03
2019-01-18T03:57:25.386Z,4.42
2019-01-18T03:59:55.030Z,4.55
2019-01-18T04:02:24.776Z,4.00
2019-01-18T04:04:54.429Z,4.12
2019-01-18T04:07:24.354Z,4.22
2019-01-18T04:09:54.275Z,4.25
2019-01-18T04:12:24.177Z,4.93
2019-01-18T04:14:54.083Z,3.50
2019-01-18T04:17:23.775Z,3.90
2019-01-18T04:19:53.859Z,3.80
2019-01-18T04:22:23.566Z,3.58
2019-01-18T04:24:53.286Z,3.80
2019-01-18T04:27:23.394Z,3.70
2019-01-18T04:29:53.117Z,3.58
2019-01-18T04:32:23.052Z,4.10
2019-01-18T04:34:52.751Z,3.98
2019-01-18T04:37:22.509Z,4.28
2019-01-18T04:39:52.299Z,4.58
2019-01-18T04:42:22.016Z,4.20
2019-01-18T04:44:51.732Z,3.60
2019-01-18T04:47:21.836Z,3.60
2019-01-18T04:49:51.521Z,4.85
2019-01-18T04:52:21.179Z,3.90
2019-01-18T04:54:51.028Z,4.25
2019-01-18T04:57:20.785Z,3.90
2019-01-18T04:59:50.610Z,4.40
2019-01-18T05:02:20.330Z,3.90
2019-01-18T05:04:50.173Z,4.05
2019-01-18T05:07:19.842Z,3.98
2019-01-18T05:09:49.639Z,4.75
2019-01-18T05:12:19.936Z,4.30
2019-01-18T05:14:50.103Z,3.60
2019-01-18T05:17:19.761Z,4.15
2019-01-18T05:19:49.636Z,4.40
2019-01-18T05:22:19.929Z,4.30
2019-01-18T05:24:49.735Z,3.80
2019-01-18T05:27:19.448Z,4.10
2019-01-18T05:29:49.240Z,3.65
2019-01-18T05:32:19.177Z,4.92
2019-01-18T05:34:48.764Z,4.67
2019-01-18T05:37:18.569Z,4.30
2019-01-18T05:39:48.567Z,4.50
2019-01-18T05:42:18.343Z,3.93
2019-01-18T05:44:48.081Z,4.15
2019-01-18T05:47:17.703Z,4.12
2019-01-18T05:49:47.998Z,4.20
2019-01-18T05:52:17.859Z,4.50
2019-01-18T05:54:47.572Z,3.90
2019-01-18T05:57:17.399Z,4.70
2019-01-18T05:59:47.203Z,4.10
2019-01-18T06:02:16.812Z,4.22
2019-01-18T06:04:47.765Z,4.33
2019-01-18T06:07:17.545Z,4.00
2019-01-18T06:09:47.475Z,4.20
2019-01-18T06:12:17.307Z,4.55
2019-01-18T06:14:46.962Z,4.90
2019-01-18T06:17:16.856Z,4.03
2019-01-18T06:19:46.543Z,4.62
2019-01-18T06:22:16.455Z,4.67
2019-01-18T06:24:46.082Z,4.47
2019-01-18T06:27:15.808Z,4.70
2019-01-18T06:29:46.524Z,4.50
2019-01-18T06:32:16.243Z,4.80
2019-01-18T06:34:45.937Z,5.08
2019-01-18T06:37:15.541Z,5.20
2019-01-18T06:39:45.379Z,4.75
2019-01-18T06:42:15.081Z,4.50
2019-01-18T06:44:44.880Z,5.37
2019-01-18T06:47:14.669Z,5.17
2019-01-18T06:49:44.760Z,4.90
2019-01-18T06:52:14.628Z,4.10
2019-01-18T06:54:44.484Z,5.20
2019-01-18T06:57:14.291Z,5.00
2019-01-18T06:59:45.266Z,4.60
2019-01-18T07:02:15.096Z,3.87
2019-01-18T07:04:44.902Z,4.45
2019-01-18T07:07:14.616Z,4.62
2019-01-18T07:09:44.535Z,5.30
2019-01-18T07:12:14.503Z,5.37
2019-01-18T07:14:44.335Z,4.80
2019-01-18T07:17:14.012Z,4.83
2019-01-18T07:19:44.129Z,4.70
2019-01-18T07:22:13.943Z,3.62
2019-01-18T07:24:43.824Z,4.55
2019-01-18T07:27:13.564Z,3.60
2019-01-18T07:29:43.657Z,4.42
2019-01-18T07:32:14.699Z,5.05
2019-01-18T07:34:44.643Z,5.30
2019-01-18T07:37:14.269Z,4.00
2019-01-18T07:39:44.329Z,4.03
2019-01-18T07:42:14.253Z,3.80
2019-01-18T07:44:43.988Z,4.22
2019-01-18T07:47:13.842Z,4.70
2019-01-18T07:49:43.838Z,4.00
2019-01-18T07:52:13.660Z,5.00
2019-01-18T07:54:43.322Z,5.35
2019-01-18T07:57:13.307Z,4.60
2019-01-18T07:59:43.510Z,4.62
2019-01-18T08:02:13.967Z,3.85
2019-01-18T08:04:43.830Z,4.90
2019-01-18T08:07:13.508Z,5.20
2019-01-18T08:09:43.574Z,3.70
2019-01-18T08:12:13.547Z,4.37
2019-01-18T08:14:43.336Z,4.65
2019-01-18T08:17:12.987Z,4.03
2019-01-18T08:19:42.865Z,5.40
2019-01-18T08:22:12.583Z,6.80
2019-01-18T08:24:42.385Z,3.73
2019-01-18T08:27:11.903Z,4.90
2019-01-18T08:29:41.615Z,5.30
2019-01-18T08:32:11.512Z,3.87
2019-01-18T08:34:41.182Z,4.70
2019-01-18T08:37:11.001Z,3.87
2019-01-18T08:39:41.210Z,4.50
2019-01-18T08:42:11.015Z,3.90
2019-01-18T08:44:40.648Z,4.27
2019-01-18T08:47:10.563Z,4.40
2019-01-18T08:49:41.220Z,4.13
2019-01-18T08:52:11.156Z,3.77
2019-01-18T08:54:40.844Z,4.20
2019-01-18T08:57:10.513Z,3.87
2019-01-18T08:59:40.264Z,4.10
2019-01-18T09:02:09.863Z,4.20
2019-01-18T09:04:39.690Z,4.30
2019-01-18T09:07:09.302Z,4.60
2019-01-18T09:09:39.251Z,5.57
2019-01-18T09:12:09.189Z,4.07
2019-01-18T09:14:40.013Z,4.50
2019-01-18T09:17:09.936Z,4.17
2019-01-18T09:19:39.793Z,4.63
2019-01-18T09:22:09.421Z,4.60
2019-01-18T09:24:39.182Z,4.43
2019-01-18T09:27:09.340Z,4.17
2019-01-18T09:29:39.359Z,3.97
2019-01-18T09:32:09.260Z,4.07
2019-01-18T09:34:38.888Z,4.30
2019-01-18T09:37:08.850Z,3.90
2019-01-18T09:39:38.682Z,3.73
2019-01-18T09:42:08.427Z,4.80
2019-01-18T09:44:38.397Z,4.67
2019-01-18T09:47:08.227Z,4.50
2019-01-18T09:49:38.155Z,4.80
2019-01-18T09:52:08.957Z,4.53
2019-01-18T09:54:39.529Z,5.13
2019-01-18T09:57:09.202Z,4.60
2019-01-18T09:59:40.009Z,4.33
2019-01-18T10:02:09.778Z,4.40
2019-01-18T10:04:39.505Z,6.93
2019-01-18T10:07:09.591Z,4.57
2019-01-18T10:09:39.305Z,4.87
2019-01-18T10:12:09.146Z,4.47
2019-01-18T10:14:39.060Z,5.40
2019-01-18T10:17:08.844Z,4.70
2019-01-18T10:19:38.674Z,5.60
2019-01-18T10:22:08.647Z,5.40
2019-01-18T10:24:38.490Z,4.80
2019-01-18T10:27:08.264Z,4.90
2019-01-18T10:29:37.919Z,5.00
2019-01-18T10:32:10.103Z,4.90
2019-01-18T10:34:40.033Z,4.97
2019-01-18T10:37:11.238Z,6.97
2019-01-18T10:39:41.673Z,4.73
2019-01-18T10:42:11.495Z,4.00
2019-01-18T10:44:41.433Z,4.40
2019-01-18T10:47:11.320Z,4.40
2019-01-18T10:49:41.092Z,5.20
2019-01-18T10:52:10.952Z,4.50
2019-01-18T10:54:40.715Z,4.17
2019-01-18T10:57:10.464Z,4.33
2019-01-18T10:59:40.384Z,4.27
2019-01-18T11:02:10.087Z,4.17
2019-01-18T11:04:40.212Z,4.07
2019-01-18T11:07:10.023Z,4.60
2019-01-18T11:09:39.932Z,4.70
2019-01-18T11:12:09.863Z,4.40
2019-01-18T11:14:39.680Z,4.40
2019-01-18T11:17:09.378Z,3.87
2019-01-18T11:19:39.223Z,4.80
2019-01-18T11:22:09.500Z,4.40
2019-01-18T11:24:39.452Z,4.17
2019-01-18T11:27:09.180Z,4.07
2019-01-18T11:29:38.883Z,4.83
2019-01-18T11:32:13.681Z,4.87
2019-01-18T11:34:40.091Z,5.20
2019-01-18T11:37:10.062Z,5.37
2019-01-18T11:39:39.945Z,5.10
2019-01-18T11:42:09.827Z,5.60
2019-01-18T11:44:39.662Z,4.20
2019-01-18T11:47:10.608Z,4.53
2019-01-18T11:49:41.429Z,3.90
2019-01-18T11:52:11.118Z,4.40
2019-01-18T11:54:44.062Z,4.23
2019-01-18T11:57:12.377Z,4.60
2019-01-18T11:59:42.205Z,4.23
2019-01-18T12:02:16.196Z,3.37
2019-01-18T12:04:43.553Z,3.23
2019-01-18T12:07:13.405Z,7.40
2019-01-18T12:09:43.113Z,3.83
2019-01-18T12:12:13.293Z,3.67
2019-01-18T12:14:43.003Z,3.23
2019-01-18T12:17:13.866Z,4.47
2019-01-18T12:19:43.449Z,3.93
2019-01-18T12:22:13.305Z,3.57
2019-01-18T12:24:43.383Z,4.00
2019-01-18T12:27:13.336Z,3.90
2019-01-18T12:29:43.214Z,4.30
2019-01-18T12:32:13.073Z,4.60
2019-01-18T12:34:43.120Z,4.00
2019-01-18T12:37:13.270Z,3.50
2019-01-18T12:39:43.059Z,3.80
2019-01-18T12:42:13.041Z,3.10
2019-01-18T12:44:42.957Z,3.17
2019-01-18T12:47:12.856Z,5.10
2019-01-18T12:49:43.441Z,3.60
2019-01-18T12:52:13.090Z,4.30
2019-01-18T12:54:43.075Z,3.40
2019-01-18T12:57:13.019Z,4.37
2019-01-18T12:59:42.937Z,4.77
2019-01-18T13:02:12.896Z,4.90
2019-01-18T13:04:43.482Z,4.00
2019-01-18T13:07:13.376Z,3.67
2019-01-18T13:09:43.270Z,4.50
2019-01-18T13:12:13.143Z,4.77
2019-01-18T13:14:43.037Z,3.63
2019-01-18T13:17:12.858Z,3.80
2019-01-18T13:19:42.842Z,4.30
2019-01-18T13:22:12.681Z,4.47
2019-01-18T13:24:42.573Z,4.30
2019-01-18T13:27:12.508Z,6.27
2019-01-18T13:29:42.570Z,5.00
2019-01-18T13:32:12.316Z,4.80
2019-01-18T13:34:42.222Z,5.10
2019-01-18T13:37:12.262Z,6.13
2019-01-18T13:39:42.183Z,5.00
2019-01-18T13:42:12.084Z,6.70
2019-01-18T13:44:43.730Z,6.63
2019-01-18T13:47:18.223Z,5.23
2019-01-18T13:49:45.948Z,5.53
2019-01-18T13:52:15.850Z,5.40
2019-01-18T13:54:45.767Z,4.77
2019-01-18T13:57:15.720Z,5.50
2019-01-18T13:59:45.622Z,5.60
2019-01-18T14:02:15.436Z,5.27
2019-01-18T14:04:45.478Z,7.23
2019-01-18T14:07:15.182Z,5.03
2019-01-18T14:09:45.067Z,5.30
2019-01-18T14:12:14.940Z,7.63
2019-01-18T14:14:44.799Z,5.50
2019-01-18T14:17:14.740Z,5.53
2019-01-18T14:19:45.038Z,5.60
2019-01-18T14:22:14.803Z,4.90
2019-01-18T14:24:44.530Z,7.77
2019-01-18T14:27:14.354Z,6.27
2019-01-18T14:29:44.041Z,5.93
2019-01-18T14:32:13.692Z,5.80
2019-01-18T14:34:43.567Z,5.37
2019-01-18T14:37:13.658Z,6.00
2019-01-18T14:39:43.613Z,5.30
2019-01-18T14:42:13.595Z,5.63
2019-01-18T14:44:43.361Z,5.93
2019-01-18T14:47:13.239Z,5.20
2019-01-18T14:49:43.076Z,5.80
2019-01-18T14:52:12.890Z,5.40
2019-01-18T14:54:42.797Z,6.00
2019-01-18T14:57:12.719Z,5.53
2019-01-18T14:59:42.748Z,5.70
2019-01-18T15:02:12.838Z,6.33
2019-01-18T15:04:45.327Z,6.53
2019-01-18T15:07:15.152Z,6.87
2019-01-18T15:09:45.131Z,5.20
2019-01-18T15:12:14.974Z,5.87
2019-01-18T15:14:44.992Z,6.10
2019-01-18T15:17:16.047Z,5.97
2019-01-18T15:19:46.234Z,5.47
2019-01-18T15:22:16.139Z,6.43
2019-01-18T15:24:45.938Z,5.90
2019-01-18T15:27:16.837Z,6.13
2019-01-18T15:29:46.452Z,5.40
2019-01-18T15:32:16.402Z,5.75
2019-01-18T15:34:46.236Z,7.80
2019-01-18T15:37:16.367Z,5.77
2019-01-18T15:39:51.416Z,6.22
2019-01-18T15:42:21.428Z,6.20
2019-01-18T15:44:51.315Z,5.70
2019-01-18T15:47:21.161Z,6.28
2019-01-18T15:49:51.080Z,6.55
2019-01-18T15:52:20.948Z,6.00
2019-01-18T15:54:51.116Z,7.30
2019-01-18T15:57:20.890Z,6.90
2019-01-18T15:59:50.634Z,5.87
2019-01-18T16:02:20.609Z,5.90
2019-01-18T16:04:51.285Z,7.47
2019-01-18T16:07:22.924Z,7.40
2019-01-18T16:09:52.813Z,6.62
2019-01-18T16:12:22.767Z,7.65
2019-01-18T16:14:52.565Z,7.22
2019-01-18T16:17:26.232Z,7.87
2019-01-18T16:19:55.954Z,7.60
2019-01-18T16:22:25.740Z,7.85
2019-01-18T16:24:55.599Z,6.10
2019-01-18T16:27:25.472Z,6.87
2019-01-18T16:29:55.234Z,7.67
2019-01-18T16:32:24.947Z,7.50
2019-01-18T16:34:55.034Z,8.93
2019-01-18T16:37:24.871Z,7.42
2019-01-18T16:39:54.627Z,6.28
2019-01-18T16:42:25.225Z,8.23
2019-01-18T16:44:55.026Z,6.20
2019-01-18T16:47:24.858Z,7.80
2019-01-18T16:49:54.693Z,6.50
2019-01-18T16:52:24.583Z,6.40
2019-01-18T16:57:16.686Z,6.80
2019-01-18T16:59:46.427Z,7.10
2019-01-18T17:02:16.238Z,7.25
2019-01-18T17:04:46.091Z,7.58
2019-01-18T17:07:16.580Z,9.30
2019-01-18T17:09:46.505Z,8.28
2019-01-18T17:12:16.216Z,6.55
2019-01-18T17:14:46.060Z,8.15
2019-01-18T17:17:15.841Z,7.60
2019-01-18T17:19:45.711Z,7.12
2019-01-18T17:22:15.345Z,7.35
2019-01-18T17:24:45.052Z,6.58
2019-01-18T17:27:14.842Z,7.40
2019-01-18T17:29:44.548Z,6.22
2019-01-18T17:32:14.285Z,7.15
2019-01-18T17:34:43.935Z,6.67
2019-01-18T17:37:21.331Z,7.35
2019-01-18T17:40:27.804Z,6.72
2019-01-18T17:43:43.427Z,6.58
2019-01-18T17:46:37.839Z,6.05
2019-01-18T17:49:44.098Z,6.70
2019-01-18T17:52:54.561Z,7.25
2019-01-18T17:56:20.354Z,6.62
2019-01-18T17:59:06.257Z,6.87
2019-01-18T18:02:25.763Z,7.40
2019-01-18T18:05:52.035Z,6.75
2019-01-18T18:09:01.182Z,7.08
2019-01-18T18:11:38.919Z,6.45
2019-01-18T18:14:52.416Z,6.90
2019-01-18T18:17:56.784Z,6.60
2019-01-18T18:20:58.554Z,8.13
2019-01-18T18:24:15.275Z,8.43
2019-01-18T18:27:05.098Z,8.25
2019-01-18T18:30:06.544Z,6.95
2019-01-18T18:33:19.890Z,7.90
2019-01-18T18:36:21.226Z,8.90
2019-01-18T18:39:43.844Z,8.53
2019-01-18T18:42:53.568Z,8.20
2019-01-18T18:45:44.433Z,8.30
2019-01-18T18:48:54.517Z,8.38
2019-01-18T18:52:11.275Z,10.23
2019-01-18T18:55:17.188Z,10.05
2019-01-18T18:58:24.231Z,9.50
2019-01-18T19:01:11.486Z,10.48
2019-01-18T19:04:37.430Z,12.15
2019-01-18T19:07:39.047Z,10.82
2019-01-18T19:10:34.316Z,10.10
2019-01-18T19:13:45.297Z,10.85
2019-01-18T19:16:56.103Z,10.48
2019-01-18T19:20:08.389Z,10.05
2019-01-18T19:22:52.724Z,9.80
2019-01-18T19:25:51.738Z,9.90
2019-01-18T19:29:07.202Z,9.68
2019-01-18T19:32:20.931Z,9.68
2019-01-18T19:35:30.680Z,9.25
2019-01-18T19:38:47.496Z,9.98
2019-01-18T19:42:06.800Z,10.58
2019-01-18T19:45:27.587Z,8.83
2019-01-18T19:48:38.681Z,10.00
2019-01-18T19:52:01.433Z,9.18
2019-01-18T19:54:38.624Z,9.15
2019-01-18T19:57:50.499Z,9.65
2019-01-18T20:01:07.159Z,8.88
2019-01-18T20:04:11.460Z,8.03
2019-01-18T20:06:58.841Z,8.83
2019-01-18T20:09:53.025Z,9.90
2019-01-18T20:12:59.051Z,9.70
2019-01-18T20:15:53.849Z,9.45
2019-01-18T20:19:15.785Z,9.88
2019-01-18T20:22:26.623Z,9.58
2019-01-18T20:25:23.740Z,8.65
2019-01-18T20:28:37.834Z,8.90
2019-01-18T20:31:13.127Z,9.80
2019-01-18T20:34:18.186Z,8.78
2019-01-18T20:36:54.060Z,8.58
2019-01-18T20:39:54.869Z,8.95
2019-01-18T20:43:13.907Z,9.25
2019-01-18T20:46:52.453Z,8.33
2019-01-18T20:49:58.148Z,8.00
2019-01-18T20:52:49.256Z,9.23
2019-01-18T20:55:45.815Z,7.87
2019-01-18T20:58:43.046Z,9.35
2019-01-18T21:02:08.675Z,9.73
2019-01-18T21:05:16.032Z,8.80
2019-01-18T21:08:09.623Z,9.00
2019-01-18T21:10:48.695Z,9.55
2019-01-18T21:13:31.468Z,10.03
2019-01-18T21:16:45.786Z,10.38
2019-01-18T21:19:36.284Z,10.20
2019-01-18T21:22:49.559Z,11.80
2019-01-18T21:25:59.539Z,12.88
2019-01-18T21:29:01.240Z,10.45
2019-01-18T21:32:23.047Z,12.00
2019-01-18T21:35:35.736Z,12.05
2019-01-18T21:39:09.916Z,13.20
2019-01-18T21:42:35.066Z,13.40
2019-01-18T21:45:48.711Z,12.33
2019-01-18T21:49:20.509Z,13.25
2019-01-18T21:52:28.440Z,12.37
2019-01-18T21:55:23.236Z,13.43
2019-01-18T21:58:47.600Z,13.72
2019-01-18T22:02:05.659Z,12.25
2019-01-18T22:05:08.834Z,14.80
2019-01-18T22:08:01.153Z,13.20
2019-01-18T22:11:03.250Z,12.25
2019-01-18T22:13:58.343Z,12.43
2019-01-18T22:17:06.624Z,13.10
2019-01-18T22:20:14.876Z,12.58
2019-01-18T22:23:11.622Z,15.55
2019-01-18T22:26:10.139Z,11.25
2019-01-18T22:29:16.759Z,13.18
2019-01-18T22:32:39.201Z,11.53
2019-01-18T22:35:44.156Z,12.60
2019-01-18T22:38:52.984Z,13.68
2019-01-18T22:42:11.396Z,12.68
2019-01-18T22:45:25.146Z,13.05
2019-01-18T22:48:33.199Z,12.95
2019-01-18T22:51:26.826Z,10.85
2019-01-18T22:54:43.195Z,13.10
2019-01-18T22:57:43.047Z,13.00
2019-01-18T23:01:16.969Z,13.20
2019-01-18T23:04:24.537Z,12.68
2019-01-18T23:07:13.759Z,12.37
2019-01-18T23:10:43.304Z,13.85
2019-01-18T23:13:34.076Z,12.90
2019-01-18T23:16:29.801Z,14.73
2019-01-18T23:19:25.474Z,13.48
2019-01-18T23:22:45.251Z,12.35
2019-01-18T23:25:59.415Z,13.93
2019-01-18T23:29:21.081Z,13.45
2019-01-18T23:32:27.407Z,13.38
2019-01-18T23:35:23.479Z,8.68
2019-01-18T23:38:21.345Z,12.95
2019-01-18T23:41:44.150Z,13.20
2019-01-18T23:44:47.597Z,12.20
2019-01-18T23:47:57.623Z,11.97
2019-01-18T23:50:39.103Z,12.88
2019-01-18T23:53:44.136Z,11.20
2019-01-18T23:56:29.283Z,12.93
2019-01-18T23:59:18.630Z,12.65
